sensor_id;sensor_type;location;lat;lon;timestamp;P1;durP1;ratioP1;P2;durP2;ratioP2
40599;SDS011;26309;50.924;4.754;2023-02-18T00:01:10;28.67;;;22.08;;
40599;SDS011;26309;50.924;4.754;2023-02-18T00:03:37;29.23;;;20.38;;
40599;SDS011;26309;50.924;4.754;2023-02-18T00:06:18;27.13;;;20.20;;
40599;SDS011;26309;50.924;4.754;2023-02-18T00:08:48;30.05;;;20.13;;
40599;SDS011;26309;50.924;4.754;2023-02-18T00:11:15;26.58;;;19.83;;
40599;SDS011;26309;50.924;4.754;2023-02-18T00:13:42;28.40;;;20.10;;
40599;SDS011;26309;50.924;4.754;2023-02-18T00:16:13;24.38;;;18.42;;
40599;SDS011;26309;50.924;4.754;2023-02-18T00:18:39;27.38;;;18.83;;
40599;SDS011;26309;50.924;4.754;2023-02-18T00:21:05;23.45;;;18.10;;
40599;SDS011;26309;50.924;4.754;2023-02-18T00:23:32;26.48;;;17.98;;
40599;SDS011;26309;50.924;4.754;2023-02-18T00:26:06;22.20;;;16.95;;
40599;SDS011;26309;50.924;4.754;2023-02-18T00:28:33;22.85;;;16.38;;
40599;SDS011;26309;50.924;4.754;2023-02-18T00:31:04;24.25;;;15.75;;
40599;SDS011;26309;50.924;4.754;2023-02-18T00:33:33;21.85;;;16.05;;
40599;SDS011;26309;50.924;4.754;2023-02-18T00:36:06;25.60;;;17.63;;
40599;SDS011;26309;50.924;4.754;2023-02-18T00:38:35;29.00;;;16.08;;
40599;SDS011;26309;50.924;4.754;2023-02-18T00:41:04;19.30;;;15.02;;
40599;SDS011;26309;50.924;4.754;2023-02-18T00:43:30;20.88;;;15.20;;
40599;SDS011;26309;50.924;4.754;2023-02-18T00:45:56;20.33;;;14.43;;
40599;SDS011;26309;50.924;4.754;2023-02-18T00:48:22;21.90;;;14.75;;
40599;SDS011;26309;50.924;4.754;2023-02-18T00:50:48;18.92;;;13.98;;
40599;SDS011;26309;50.924;4.754;2023-02-18T00:53:14;19.42;;;13.13;;
40599;SDS011;26309;50.924;4.754;2023-02-18T00:55:43;19.50;;;13.10;;
40599;SDS011;26309;50.924;4.754;2023-02-18T00:58:11;15.82;;;12.43;;
40599;SDS011;26309;50.924;4.754;2023-02-18T01:00:37;19.83;;;12.63;;
40599;SDS011;26309;50.924;4.754;2023-02-18T01:03:04;19.00;;;12.32;;
40599;SDS011;26309;50.924;4.754;2023-02-18T01:05:33;16.90;;;11.60;;
40599;SDS011;26309;50.924;4.754;2023-02-18T01:08:00;16.13;;;10.82;;
40599;SDS011;26309;50.924;4.754;2023-02-18T01:10:26;15.70;;;10.35;;
40599;SDS011;26309;50.924;4.754;2023-02-18T01:12:52;14.50;;;10.95;;
40599;SDS011;26309;50.924;4.754;2023-02-18T01:15:18;15.48;;;9.98;;
40599;SDS011;26309;50.924;4.754;2023-02-18T01:17:44;13.20;;;10.52;;
40599;SDS011;26309;50.924;4.754;2023-02-18T01:20:10;13.40;;;9.85;;
40599;SDS011;26309;50.924;4.754;2023-02-18T01:22:37;12.75;;;9.35;;
40599;SDS011;26309;50.924;4.754;2023-02-18T01:25:03;12.35;;;8.85;;
40599;SDS011;26309;50.924;4.754;2023-02-18T01:27:29;13.23;;;8.65;;
40599;SDS011;26309;50.924;4.754;2023-02-18T01:29:55;12.68;;;8.90;;
40599;SDS011;26309;50.924;4.754;2023-02-18T01:32:21;9.45;;;7.93;;
40599;SDS011;26309;50.924;4.754;2023-02-18T01:34:50;7.35;;;6.35;;
40599;SDS011;26309;50.924;4.754;2023-02-18T01:37:16;10.02;;;6.28;;
40599;SDS011;26309;50.924;4.754;2023-02-18T01:39:42;9.68;;;6.72;;
40599;SDS011;26309;50.924;4.754;2023-02-18T01:42:16;7.10;;;5.75;;
40599;SDS011;26309;50.924;4.754;2023-02-18T01:44:47;6.85;;;5.57;;
40599;SDS011;26309;50.924;4.754;2023-02-18T01:47:14;5.90;;;5.30;;
40599;SDS011;26309;50.924;4.754;2023-02-18T01:49:41;6.07;;;4.85;;
40599;SDS011;26309;50.924;4.754;2023-02-18T01:52:12;5.40;;;4.55;;
40599;SDS011;26309;50.924;4.754;2023-02-18T01:54:43;4.28;;;3.80;;
40599;SDS011;26309;50.924;4.754;2023-02-18T01:57:14;4.70;;;3.80;;
40599;SDS011;26309;50.924;4.754;2023-02-18T02:02:25;7.00;;;3.72;;
40599;SDS011;26309;50.924;4.754;2023-02-18T02:04:52;4.20;;;3.50;;
40599;SDS011;26309;50.924;4.754;2023-02-18T02:07:19;3.30;;;3.00;;
40599;SDS011;26309;50.924;4.754;2023-02-18T02:09:47;2.65;;;2.40;;
40599;SDS011;26309;50.924;4.754;2023-02-18T02:12:24;4.03;;;2.88;;
40599;SDS011;26309;50.924;4.754;2023-02-18T02:37:12;1.73;;;1.63;;
40599;SDS011;26309;50.924;4.754;2023-02-18T02:42:29;1.70;;;1.60;;
40599;SDS011;26309;50.924;4.754;2023-02-18T02:47:54;2.80;;;2.10;;
40599;SDS011;26309;50.924;4.754;2023-02-18T02:50:49;3.35;;;2.30;;
40599;SDS011;26309;50.924;4.754;2023-02-18T02:53:27;2.95;;;2.40;;
40599;SDS011;26309;50.924;4.754;2023-02-18T02:55:57;2.38;;;2.17;;
40599;SDS011;26309;50.924;4.754;2023-02-18T02:58:23;2.58;;;2.38;;
40599;SDS011;26309;50.924;4.754;2023-02-18T03:01:08;3.10;;;2.80;;
40599;SDS011;26309;50.924;4.754;2023-02-18T03:12:02;4.47;;;2.78;;
40599;SDS011;26309;50.924;4.754;2023-02-18T03:17:13;2.90;;;2.70;;
40599;SDS011;26309;50.924;4.754;2023-02-18T03:20:09;3.22;;;2.78;;
40599;SDS011;26309;50.924;4.754;2023-02-18T03:22:42;4.43;;;3.42;;
40599;SDS011;26309;50.924;4.754;2023-02-18T03:25:12;3.70;;;2.67;;
40599;SDS011;26309;50.924;4.754;2023-02-18T03:27:42;3.35;;;3.05;;
40599;SDS011;26309;50.924;4.754;2023-02-18T03:30:34;4.53;;;3.33;;
40599;SDS011;26309;50.924;4.754;2023-02-18T03:33:27;4.30;;;3.00;;
40599;SDS011;26309;50.924;4.754;2023-02-18T03:35:58;3.53;;;2.85;;
40599;SDS011;26309;50.924;4.754;2023-02-18T03:39:27;4.25;;;3.15;;
40599;SDS011;26309;50.924;4.754;2023-02-18T03:41:24;3.60;;;3.10;;
40599;SDS011;26309;50.924;4.754;2023-02-18T03:43:50;4.68;;;3.35;;
40599;SDS011;26309;50.924;4.754;2023-02-18T03:46:24;3.70;;;3.40;;
40599;SDS011;26309;50.924;4.754;2023-02-18T03:48:55;3.30;;;2.95;;
40599;SDS011;26309;50.924;4.754;2023-02-18T03:51:22;3.40;;;2.92;;
40599;SDS011;26309;50.924;4.754;2023-02-18T03:53:48;3.50;;;2.70;;
40599;SDS011;26309;50.924;4.754;2023-02-18T03:56:14;3.08;;;2.85;;
40599;SDS011;26309;50.924;4.754;2023-02-18T03:58:41;2.83;;;2.63;;
40599;SDS011;26309;50.924;4.754;2023-02-18T04:01:07;3.03;;;2.67;;
40599;SDS011;26309;50.924;4.754;2023-02-18T04:03:32;2.92;;;2.72;;
40599;SDS011;26309;50.924;4.754;2023-02-18T04:05:58;2.58;;;2.38;;
40599;SDS011;26309;50.924;4.754;2023-02-18T04:08:24;3.08;;;2.78;;
40599;SDS011;26309;50.924;4.754;2023-02-18T04:10:50;2.90;;;2.65;;
40599;SDS011;26309;50.924;4.754;2023-02-18T04:13:16;2.63;;;2.42;;
40599;SDS011;26309;50.924;4.754;2023-02-18T04:15:42;3.35;;;2.60;;
40599;SDS011;26309;50.924;4.754;2023-02-18T04:18:09;3.72;;;3.40;;
40599;SDS011;26309;50.924;4.754;2023-02-18T04:20:35;3.60;;;3.30;;
40599;SDS011;26309;50.924;4.754;2023-02-18T04:23:01;3.60;;;3.30;;
40599;SDS011;26309;50.924;4.754;2023-02-18T04:25:28;3.80;;;3.30;;
40599;SDS011;26309;50.924;4.754;2023-02-18T04:27:54;3.78;;;3.38;;
40599;SDS011;26309;50.924;4.754;2023-02-18T04:30:20;3.42;;;3.13;;
40599;SDS011;26309;50.924;4.754;2023-02-18T04:32:46;3.22;;;3.03;;
40599;SDS011;26309;50.924;4.754;2023-02-18T04:35:12;2.63;;;2.42;;
40599;SDS011;26309;50.924;4.754;2023-02-18T04:37:38;3.30;;;3.00;;
40599;SDS011;26309;50.924;4.754;2023-02-18T04:40:04;3.40;;;3.10;;
40599;SDS011;26309;50.924;4.754;2023-02-18T04:42:30;3.33;;;3.03;;
40599;SDS011;26309;50.924;4.754;2023-02-18T04:44:57;4.07;;;2.75;;
40599;SDS011;26309;50.924;4.754;2023-02-18T04:47:23;3.38;;;3.08;;
40599;SDS011;26309;50.924;4.754;2023-02-18T04:49:48;3.63;;;3.33;;
40599;SDS011;26309;50.924;4.754;2023-02-18T04:52:14;3.35;;;3.15;;
40599;SDS011;26309;50.924;4.754;2023-02-18T04:54:40;5.03;;;3.55;;
40599;SDS011;26309;50.924;4.754;2023-02-18T04:57:06;4.20;;;3.05;;
40599;SDS011;26309;50.924;4.754;2023-02-18T04:59:32;3.30;;;3.08;;
40599;SDS011;26309;50.924;4.754;2023-02-18T05:01:57;3.20;;;3.00;;
40599;SDS011;26309;50.924;4.754;2023-02-18T05:04:23;3.13;;;2.83;;
40599;SDS011;26309;50.924;4.754;2023-02-18T05:06:52;3.13;;;2.85;;
40599;SDS011;26309;50.924;4.754;2023-02-18T05:09:18;3.42;;;3.00;;
40599;SDS011;26309;50.924;4.754;2023-02-18T05:11:44;3.10;;;2.80;;
40599;SDS011;26309;50.924;4.754;2023-02-18T05:14:10;2.95;;;2.75;;
40599;SDS011;26309;50.924;4.754;2023-02-18T05:16:36;4.32;;;2.83;;
40599;SDS011;26309;50.924;4.754;2023-02-18T05:19:02;2.65;;;2.45;;
40599;SDS011;26309;50.924;4.754;2023-02-18T05:21:27;3.40;;;2.65;;
40599;SDS011;26309;50.924;4.754;2023-02-18T05:23:53;2.92;;;2.63;;
40599;SDS011;26309;50.924;4.754;2023-02-18T05:26:19;2.88;;;2.67;;
40599;SDS011;26309;50.924;4.754;2023-02-18T05:28:45;2.72;;;2.53;;
40599;SDS011;26309;50.924;4.754;2023-02-18T05:31:11;2.72;;;2.53;;
40599;SDS011;26309;50.924;4.754;2023-02-18T05:33:37;2.97;;;2.65;;
40599;SDS011;26309;50.924;4.754;2023-02-18T05:36:03;3.70;;;2.65;;
40599;SDS011;26309;50.924;4.754;2023-02-18T05:38:29;2.50;;;2.30;;
40599;SDS011;26309;50.924;4.754;2023-02-18T05:40:55;3.13;;;2.30;;
40599;SDS011;26309;50.924;4.754;2023-02-18T05:43:21;3.47;;;2.17;;
40599;SDS011;26309;50.924;4.754;2023-02-18T05:45:46;5.25;;;2.13;;
40599;SDS011;26309;50.924;4.754;2023-02-18T05:48:12;3.15;;;2.10;;
40599;SDS011;26309;50.924;4.754;2023-02-18T05:50:38;1.92;;;1.80;;
40599;SDS011;26309;50.924;4.754;2023-02-18T05:53:04;3.25;;;2.22;;
40599;SDS011;26309;50.924;4.754;2023-02-18T05:55:30;3.00;;;2.03;;
40599;SDS011;26309;50.924;4.754;2023-02-18T05:57:55;4.88;;;1.92;;
40599;SDS011;26309;50.924;4.754;2023-02-18T06:00:21;4.50;;;1.95;;
40599;SDS011;26309;50.924;4.754;2023-02-18T06:02:47;2.13;;;1.60;;
40599;SDS011;26309;50.924;4.754;2023-02-18T06:05:13;4.50;;;1.85;;
40599;SDS011;26309;50.924;4.754;2023-02-18T06:07:39;4.63;;;1.70;;
40599;SDS011;26309;50.924;4.754;2023-02-18T06:10:05;6.03;;;2.00;;
40599;SDS011;26309;50.924;4.754;2023-02-18T06:12:34;3.28;;;1.80;;
40599;SDS011;26309;50.924;4.754;2023-02-18T06:15:00;6.30;;;2.20;;
40599;SDS011;26309;50.924;4.754;2023-02-18T06:17:26;6.00;;;2.95;;
40599;SDS011;26309;50.924;4.754;2023-02-18T06:19:52;5.35;;;2.88;;
40599;SDS011;26309;50.924;4.754;2023-02-18T06:22:18;7.43;;;2.63;;
40599;SDS011;26309;50.924;4.754;2023-02-18T06:24:43;6.72;;;2.78;;
40599;SDS011;26309;50.924;4.754;2023-02-18T06:27:09;7.20;;;3.25;;
40599;SDS011;26309;50.924;4.754;2023-02-18T06:29:35;11.50;;;3.00;;
40599;SDS011;26309;50.924;4.754;2023-02-18T06:32:01;7.80;;;3.05;;
40599;SDS011;26309;50.924;4.754;2023-02-18T06:34:27;6.35;;;3.22;;
40599;SDS011;26309;50.924;4.754;2023-02-18T06:36:53;9.60;;;3.70;;
40599;SDS011;26309;50.924;4.754;2023-02-18T06:39:18;8.23;;;3.22;;
40599;SDS011;26309;50.924;4.754;2023-02-18T06:41:44;7.05;;;3.00;;
40599;SDS011;26309;50.924;4.754;2023-02-18T06:44:10;6.85;;;3.17;;
40599;SDS011;26309;50.924;4.754;2023-02-18T06:46:39;6.18;;;3.17;;
40599;SDS011;26309;50.924;4.754;2023-02-18T06:49:05;9.57;;;2.70;;
40599;SDS011;26309;50.924;4.754;2023-02-18T06:51:31;13.05;;;3.42;;
40599;SDS011;26309;50.924;4.754;2023-02-18T06:53:56;11.88;;;2.90;;
40599;SDS011;26309;50.924;4.754;2023-02-18T06:56:22;13.52;;;3.47;;
40599;SDS011;26309;50.924;4.754;2023-02-18T06:58:48;14.20;;;3.57;;
40599;SDS011;26309;50.924;4.754;2023-02-18T07:01:13;12.82;;;2.47;;
40599;SDS011;26309;50.924;4.754;2023-02-18T07:03:39;7.65;;;3.08;;
40599;SDS011;26309;50.924;4.754;2023-02-18T07:06:05;11.20;;;2.67;;
40599;SDS011;26309;50.924;4.754;2023-02-18T07:08:31;11.63;;;3.08;;
40599;SDS011;26309;50.924;4.754;2023-02-18T07:11:00;17.65;;;3.15;;
40599;SDS011;26309;50.924;4.754;2023-02-18T07:13:26;15.02;;;2.95;;
40599;SDS011;26309;50.924;4.754;2023-02-18T07:15:51;17.25;;;2.95;;
40599;SDS011;26309;50.924;4.754;2023-02-18T07:18:17;13.40;;;2.53;;
40599;SDS011;26309;50.924;4.754;2023-02-18T07:20:43;19.40;;;3.45;;
40599;SDS011;26309;50.924;4.754;2023-02-18T07:23:10;13.57;;;2.97;;
40599;SDS011;26309;50.924;4.754;2023-02-18T07:25:36;14.15;;;2.75;;
40599;SDS011;26309;50.924;4.754;2023-02-18T07:28:03;8.23;;;2.42;;
40599;SDS011;26309;50.924;4.754;2023-02-18T07:30:29;13.13;;;2.95;;
40599;SDS011;26309;50.924;4.754;2023-02-18T07:32:57;19.58;;;3.05;;
40599;SDS011;26309;50.924;4.754;2023-02-18T07:35:23;14.65;;;2.80;;
40599;SDS011;26309;50.924;4.754;2023-02-18T07:37:49;16.88;;;3.03;;
40599;SDS011;26309;50.924;4.754;2023-02-18T07:40:16;21.00;;;3.42;;
40599;SDS011;26309;50.924;4.754;2023-02-18T07:42:45;12.00;;;2.60;;
40599;SDS011;26309;50.924;4.754;2023-02-18T07:45:11;14.18;;;3.20;;
40599;SDS011;26309;50.924;4.754;2023-02-18T07:47:37;17.73;;;3.53;;
40599;SDS011;26309;50.924;4.754;2023-02-18T07:50:03;12.63;;;2.95;;
40599;SDS011;26309;50.924;4.754;2023-02-18T07:52:30;16.35;;;3.42;;
40599;SDS011;26309;50.924;4.754;2023-02-18T07:54:56;19.58;;;3.63;;
40599;SDS011;26309;50.924;4.754;2023-02-18T07:57:21;18.60;;;3.53;;
40599;SDS011;26309;50.924;4.754;2023-02-18T07:59:47;19.23;;;3.67;;
40599;SDS011;26309;50.924;4.754;2023-02-18T08:02:18;14.90;;;3.53;;
40599;SDS011;26309;50.924;4.754;2023-02-18T08:04:46;16.83;;;3.58;;
40599;SDS011;26309;50.924;4.754;2023-02-18T08:07:13;17.80;;;3.45;;
40599;SDS011;26309;50.924;4.754;2023-02-18T08:09:40;20.50;;;3.83;;
40599;SDS011;26309;50.924;4.754;2023-02-18T08:12:06;17.55;;;3.40;;
40599;SDS011;26309;50.924;4.754;2023-02-18T08:14:35;11.70;;;2.78;;
40599;SDS011;26309;50.924;4.754;2023-02-18T08:17:01;16.35;;;2.95;;
40599;SDS011;26309;50.924;4.754;2023-02-18T08:19:26;18.10;;;3.17;;
40599;SDS011;26309;50.924;4.754;2023-02-18T08:21:52;13.60;;;2.92;;
40599;SDS011;26309;50.924;4.754;2023-02-18T08:24:18;17.73;;;3.35;;
40599;SDS011;26309;50.924;4.754;2023-02-18T08:26:44;20.90;;;3.40;;
40599;SDS011;26309;50.924;4.754;2023-02-18T08:29:10;19.55;;;3.10;;
40599;SDS011;26309;50.924;4.754;2023-02-18T08:31:36;15.00;;;2.97;;
40599;SDS011;26309;50.924;4.754;2023-02-18T08:34:03;18.50;;;2.75;;
40599;SDS011;26309;50.924;4.754;2023-02-18T08:36:29;12.85;;;3.10;;
40599;SDS011;26309;50.924;4.754;2023-02-18T08:38:55;20.25;;;2.92;;
40599;SDS011;26309;50.924;4.754;2023-02-18T08:41:22;14.82;;;3.00;;
40599;SDS011;26309;50.924;4.754;2023-02-18T08:43:48;14.68;;;3.20;;
40599;SDS011;26309;50.924;4.754;2023-02-18T08:46:14;14.10;;;2.50;;
40599;SDS011;26309;50.924;4.754;2023-02-18T08:48:40;14.40;;;2.70;;
40599;SDS011;26309;50.924;4.754;2023-02-18T08:51:27;13.98;;;2.38;;
40599;SDS011;26309;50.924;4.754;2023-02-18T08:53:52;10.27;;;2.40;;
40599;SDS011;26309;50.924;4.754;2023-02-18T08:56:19;14.02;;;2.65;;
40599;SDS011;26309;50.924;4.754;2023-02-18T08:58:44;11.35;;;2.22;;
40599;SDS011;26309;50.924;4.754;2023-02-18T09:01:10;12.63;;;2.67;;
40599;SDS011;26309;50.924;4.754;2023-02-18T09:03:37;12.15;;;2.42;;
40599;SDS011;26309;50.924;4.754;2023-02-18T09:06:04;14.70;;;2.63;;
40599;SDS011;26309;50.924;4.754;2023-02-18T09:08:30;14.10;;;2.42;;
40599;SDS011;26309;50.924;4.754;2023-02-18T09:11:00;10.05;;;2.05;;
40599;SDS011;26309;50.924;4.754;2023-02-18T09:13:28;11.43;;;2.67;;
40599;SDS011;26309;50.924;4.754;2023-02-18T09:16:02;8.25;;;2.15;;
40599;SDS011;26309;50.924;4.754;2023-02-18T09:18:32;12.07;;;2.40;;
40599;SDS011;26309;50.924;4.754;2023-02-18T09:21:02;8.85;;;2.22;;
40599;SDS011;26309;50.924;4.754;2023-02-18T09:23:29;8.27;;;1.83;;
40599;SDS011;26309;50.924;4.754;2023-02-18T09:25:57;11.63;;;2.25;;
40599;SDS011;26309;50.924;4.754;2023-02-18T09:28:23;9.20;;;1.90;;
40599;SDS011;26309;50.924;4.754;2023-02-18T09:30:50;9.75;;;1.77;;
40599;SDS011;26309;50.924;4.754;2023-02-18T09:33:16;9.35;;;2.10;;
40599;SDS011;26309;50.924;4.754;2023-02-18T09:35:43;10.07;;;2.20;;
40599;SDS011;26309;50.924;4.754;2023-02-18T09:38:10;11.07;;;2.03;;
40599;SDS011;26309;50.924;4.754;2023-02-18T09:40:39;12.38;;;2.08;;
40599;SDS011;26309;50.924;4.754;2023-02-18T09:43:12;9.90;;;2.08;;
40599;SDS011;26309;50.924;4.754;2023-02-18T09:45:54;6.95;;;1.75;;
40599;SDS011;26309;50.924;4.754;2023-02-18T09:48:24;12.20;;;2.10;;
40599;SDS011;26309;50.924;4.754;2023-02-18T09:50:52;10.77;;;2.30;;
40599;SDS011;26309;50.924;4.754;2023-02-18T09:53:20;8.10;;;1.98;;
40599;SDS011;26309;50.924;4.754;2023-02-18T09:55:48;12.23;;;2.10;;
40599;SDS011;26309;50.924;4.754;2023-02-18T09:58:21;6.30;;;2.10;;
40599;SDS011;26309;50.924;4.754;2023-02-18T10:01:06;7.32;;;1.80;;
40599;SDS011;26309;50.924;4.754;2023-02-18T10:03:35;6.70;;;1.92;;
40599;SDS011;26309;50.924;4.754;2023-02-18T10:06:06;8.10;;;1.98;;
40599;SDS011;26309;50.924;4.754;2023-02-18T10:08:48;8.38;;;2.08;;
40599;SDS011;26309;50.924;4.754;2023-02-18T10:11:20;9.35;;;2.10;;
40599;SDS011;26309;50.924;4.754;2023-02-18T10:13:57;10.60;;;2.45;;
40599;SDS011;26309;50.924;4.754;2023-02-18T10:16:29;9.98;;;2.22;;
40599;SDS011;26309;50.924;4.754;2023-02-18T10:18:58;7.85;;;2.22;;
40599;SDS011;26309;50.924;4.754;2023-02-18T10:21:29;8.73;;;2.17;;
40599;SDS011;26309;50.924;4.754;2023-02-18T10:26:32;7.10;;;1.80;;
40599;SDS011;26309;50.924;4.754;2023-02-18T10:29:08;9.38;;;2.20;;
40599;SDS011;26309;50.924;4.754;2023-02-18T10:31:41;9.05;;;2.22;;
40599;SDS011;26309;50.924;4.754;2023-02-18T10:36:50;13.98;;;2.45;;
40599;SDS011;26309;50.924;4.754;2023-02-18T10:39:26;7.30;;;2.00;;
40599;SDS011;26309;50.924;4.754;2023-02-18T10:50:45;9.75;;;2.45;;
40599;SDS011;26309;50.924;4.754;2023-02-18T10:53:17;4.47;;;1.83;;
40599;SDS011;26309;50.924;4.754;2023-02-18T10:56:01;9.10;;;2.38;;
40599;SDS011;26309;50.924;4.754;2023-02-18T10:58:46;8.35;;;2.30;;
40599;SDS011;26309;50.924;4.754;2023-02-18T11:01:16;10.25;;;2.25;;
40599;SDS011;26309;50.924;4.754;2023-02-18T11:03:50;9.18;;;2.22;;
40599;SDS011;26309;50.924;4.754;2023-02-18T11:06:30;11.80;;;2.13;;
40599;SDS011;26309;50.924;4.754;2023-02-18T11:08:57;11.77;;;2.17;;
40599;SDS011;26309;50.924;4.754;2023-02-18T11:11:24;9.75;;;2.22;;
40599;SDS011;26309;50.924;4.754;2023-02-18T11:13:57;5.88;;;1.90;;
40599;SDS011;26309;50.924;4.754;2023-02-18T11:16:40;7.35;;;2.22;;
40599;SDS011;26309;50.924;4.754;2023-02-18T11:24:39;9.20;;;2.75;;
40599;SDS011;26309;50.924;4.754;2023-02-18T11:27:13;10.90;;;2.85;;
40599;SDS011;26309;50.924;4.754;2023-02-18T11:30:00;11.90;;;2.92;;
40599;SDS011;26309;50.924;4.754;2023-02-18T11:32:29;8.95;;;2.83;;
40599;SDS011;26309;50.924;4.754;2023-02-18T11:35:00;7.85;;;2.53;;
40599;SDS011;26309;50.924;4.754;2023-02-18T11:37:27;8.88;;;2.50;;
40599;SDS011;26309;50.924;4.754;2023-02-18T11:39:56;7.05;;;2.28;;
40599;SDS011;26309;50.924;4.754;2023-02-18T11:42:24;11.73;;;2.80;;
40599;SDS011;26309;50.924;4.754;2023-02-18T11:44:55;9.45;;;2.72;;
40599;SDS011;26309;50.924;4.754;2023-02-18T11:47:33;11.25;;;2.50;;
40599;SDS011;26309;50.924;4.754;2023-02-18T11:52:34;6.50;;;2.40;;
40599;SDS011;26309;50.924;4.754;2023-02-18T11:55:21;7.10;;;2.47;;
40599;SDS011;26309;50.924;4.754;2023-02-18T11:57:56;8.23;;;2.30;;
40599;SDS011;26309;50.924;4.754;2023-02-18T12:03:27;9.63;;;2.47;;
40599;SDS011;26309;50.924;4.754;2023-02-18T12:06:23;9.43;;;2.78;;
40599;SDS011;26309;50.924;4.754;2023-02-18T12:09:05;14.65;;;2.63;;
40599;SDS011;26309;50.924;4.754;2023-02-18T12:12:05;10.57;;;2.50;;
40599;SDS011;26309;50.924;4.754;2023-02-18T12:14:40;7.55;;;2.38;;
40599;SDS011;26309;50.924;4.754;2023-02-18T12:39:02;10.15;;;2.65;;
40599;SDS011;26309;50.924;4.754;2023-02-18T12:50:08;17.67;;;2.95;;
40599;SDS011;26309;50.924;4.754;2023-02-18T12:58:25;6.18;;;2.40;;
40599;SDS011;26309;50.924;4.754;2023-02-18T13:04:02;11.95;;;2.90;;
40599;SDS011;26309;50.924;4.754;2023-02-18T13:15:27;11.77;;;2.83;;
40599;SDS011;26309;50.924;4.754;2023-02-18T13:17:59;11.45;;;3.17;;
40599;SDS011;26309;50.924;4.754;2023-02-18T13:23:32;14.82;;;3.10;;
40599;SDS011;26309;50.924;4.754;2023-02-18T13:26:03;11.65;;;3.15;;
40599;SDS011;26309;50.924;4.754;2023-02-18T13:33:46;13.57;;;3.13;;
40599;SDS011;26309;50.924;4.754;2023-02-18T13:39:16;14.48;;;3.85;;
40599;SDS011;26309;50.924;4.754;2023-02-18T13:41:46;12.10;;;3.72;;
40599;SDS011;26309;50.924;4.754;2023-02-18T13:46:54;16.98;;;4.47;;
40599;SDS011;26309;50.924;4.754;2023-02-18T13:49:32;17.98;;;4.13;;
40599;SDS011;26309;50.924;4.754;2023-02-18T13:52:00;17.95;;;3.92;;
40599;SDS011;26309;50.924;4.754;2023-02-18T13:54:28;12.10;;;4.00;;
40599;SDS011;26309;50.924;4.754;2023-02-18T13:57:14;12.73;;;3.60;;
40599;SDS011;26309;50.924;4.754;2023-02-18T13:59:46;13.75;;;3.97;;
40599;SDS011;26309;50.924;4.754;2023-02-18T14:04:53;9.55;;;3.85;;
40599;SDS011;26309;50.924;4.754;2023-02-18T14:17:47;13.23;;;3.50;;
40599;SDS011;26309;50.924;4.754;2023-02-18T14:20:32;9.95;;;3.50;;
40599;SDS011;26309;50.924;4.754;2023-02-18T14:25:48;8.48;;;3.10;;
40599;SDS011;26309;50.924;4.754;2023-02-18T14:28:43;18.33;;;3.45;;
40599;SDS011;26309;50.924;4.754;2023-02-18T14:31:41;11.95;;;3.35;;
40599;SDS011;26309;50.924;4.754;2023-02-18T14:51:30;10.15;;;3.10;;
40599;SDS011;26309;50.924;4.754;2023-02-18T14:54:01;11.50;;;3.00;;
40599;SDS011;26309;50.924;4.754;2023-02-18T14:56:30;8.05;;;3.20;;
40599;SDS011;26309;50.924;4.754;2023-02-18T14:59:02;10.07;;;3.50;;
40599;SDS011;26309;50.924;4.754;2023-02-18T15:01:30;9.48;;;3.05;;
40599;SDS011;26309;50.924;4.754;2023-02-18T15:03:59;8.15;;;2.75;;
40599;SDS011;26309;50.924;4.754;2023-02-18T15:06:33;8.05;;;2.40;;
40599;SDS011;26309;50.924;4.754;2023-02-18T15:09:01;7.43;;;2.35;;
40599;SDS011;26309;50.924;4.754;2023-02-18T15:11:42;10.23;;;2.65;;
40599;SDS011;26309;50.924;4.754;2023-02-18T15:14:22;9.13;;;2.88;;
40599;SDS011;26309;50.924;4.754;2023-02-18T15:17:14;5.07;;;2.47;;
40599;SDS011;26309;50.924;4.754;2023-02-18T15:19:48;10.50;;;3.13;;
40599;SDS011;26309;50.924;4.754;2023-02-18T15:22:18;9.57;;;2.70;;
40599;SDS011;26309;50.924;4.754;2023-02-18T15:24:56;12.05;;;3.33;;
40599;SDS011;26309;50.924;4.754;2023-02-18T15:27:23;8.63;;;2.53;;
40599;SDS011;26309;50.924;4.754;2023-02-18T15:32:49;8.73;;;3.00;;
40599;SDS011;26309;50.924;4.754;2023-02-18T15:35:19;6.80;;;3.10;;
40599;SDS011;26309;50.924;4.754;2023-02-18T15:37:50;12.68;;;3.75;;
40599;SDS011;26309;50.924;4.754;2023-02-18T15:40:19;8.88;;;3.08;;
40599;SDS011;26309;50.924;4.754;2023-02-18T15:42:49;7.78;;;2.70;;
40599;SDS011;26309;50.924;4.754;2023-02-18T15:47:46;7.57;;;3.30;;
40599;SDS011;26309;50.924;4.754;2023-02-18T15:50:19;12.32;;;3.60;;
40599;SDS011;26309;50.924;4.754;2023-02-18T15:53:07;9.93;;;3.17;;
40599;SDS011;26309;50.924;4.754;2023-02-18T15:55:38;10.20;;;3.50;;
40599;SDS011;26309;50.924;4.754;2023-02-18T15:58:18;8.77;;;3.10;;
40599;SDS011;26309;50.924;4.754;2023-02-18T16:01:03;6.85;;;3.13;;
40599;SDS011;26309;50.924;4.754;2023-02-18T16:03:52;9.18;;;3.13;;
40599;SDS011;26309;50.924;4.754;2023-02-18T16:06:21;13.00;;;3.13;;
40599;SDS011;26309;50.924;4.754;2023-02-18T16:09:01;8.93;;;3.65;;
40599;SDS011;26309;50.924;4.754;2023-02-18T16:11:40;10.88;;;3.58;;
40599;SDS011;26309;50.924;4.754;2023-02-18T16:20:14;12.75;;;3.78;;
40599;SDS011;26309;50.924;4.754;2023-02-18T16:22:52;9.00;;;3.72;;
40599;SDS011;26309;50.924;4.754;2023-02-18T16:25:24;7.93;;;3.53;;
40599;SDS011;26309;50.924;4.754;2023-02-18T16:30:27;9.18;;;3.50;;
40599;SDS011;26309;50.924;4.754;2023-02-18T16:32:55;7.63;;;3.47;;
40599;SDS011;26309;50.924;4.754;2023-02-18T16:35:22;9.20;;;3.63;;
40599;SDS011;26309;50.924;4.754;2023-02-18T16:37:51;7.78;;;3.78;;
40599;SDS011;26309;50.924;4.754;2023-02-18T16:40:25;12.27;;;3.60;;
40599;SDS011;26309;50.924;4.754;2023-02-18T16:42:58;6.90;;;3.53;;
40599;SDS011;26309;50.924;4.754;2023-02-18T16:45:35;13.18;;;4.07;;
40599;SDS011;26309;50.924;4.754;2023-02-18T16:48:32;10.73;;;3.38;;
40599;SDS011;26309;50.924;4.754;2023-02-18T16:50:58;9.38;;;3.50;;
40599;SDS011;26309;50.924;4.754;2023-02-18T16:53:28;10.85;;;3.80;;
40599;SDS011;26309;50.924;4.754;2023-02-18T16:55:54;7.55;;;3.55;;
40599;SDS011;26309;50.924;4.754;2023-02-18T16:58:20;10.63;;;3.78;;
40599;SDS011;26309;50.924;4.754;2023-02-18T17:00:46;10.18;;;3.33;;
40599;SDS011;26309;50.924;4.754;2023-02-18T17:03:16;9.73;;;3.65;;
40599;SDS011;26309;50.924;4.754;2023-02-18T17:05:42;11.05;;;3.63;;
40599;SDS011;26309;50.924;4.754;2023-02-18T17:10:37;11.48;;;3.28;;
40599;SDS011;26309;50.924;4.754;2023-02-18T17:13:03;9.30;;;3.63;;
40599;SDS011;26309;50.924;4.754;2023-02-18T17:15:30;6.55;;;3.53;;
40599;SDS011;26309;50.924;4.754;2023-02-18T17:17:58;9.60;;;3.72;;
40599;SDS011;26309;50.924;4.754;2023-02-18T17:20:26;7.47;;;3.30;;
40599;SDS011;26309;50.924;4.754;2023-02-18T17:22:53;6.28;;;3.22;;
40599;SDS011;26309;50.924;4.754;2023-02-18T17:25:24;8.75;;;3.67;;
40599;SDS011;26309;50.924;4.754;2023-02-18T17:27:56;4.25;;;3.30;;
40599;SDS011;26309;50.924;4.754;2023-02-18T17:30:22;8.20;;;3.70;;
40599;SDS011;26309;50.924;4.754;2023-02-18T17:32:48;9.45;;;3.90;;
40599;SDS011;26309;50.924;4.754;2023-02-18T17:35:18;9.48;;;4.30;;
40599;SDS011;26309;50.924;4.754;2023-02-18T17:37:46;8.88;;;4.30;;
40599;SDS011;26309;50.924;4.754;2023-02-18T17:40:16;7.88;;;4.03;;
40599;SDS011;26309;50.924;4.754;2023-02-18T17:42:46;9.52;;;4.30;;
40599;SDS011;26309;50.924;4.754;2023-02-18T17:45:14;6.82;;;3.90;;
40599;SDS011;26309;50.924;4.754;2023-02-18T17:48:02;9.25;;;4.30;;
40599;SDS011;26309;50.924;4.754;2023-02-18T17:50:28;9.65;;;4.55;;
40599;SDS011;26309;50.924;4.754;2023-02-18T17:52:55;10.52;;;4.25;;
40599;SDS011;26309;50.924;4.754;2023-02-18T17:57:48;12.40;;;5.05;;